createdAt,value
2019-01-12T00:04:11.964Z,0.57
2019-01-12T00:09:16.721Z,0.20
2019-01-12T00:14:19.444Z,0.40
2019-01-12T00:19:24.169Z,0.30
2019-01-12T00:24:31.663Z,0.30
2019-01-12T00:29:33.578Z,0.10
2019-01-12T00:34:38.370Z,0.30
2019-01-12T00:39:47.314Z,0.20
2019-01-12T00:44:49.997Z,0.40
2019-01-12T00:49:52.795Z,0.70
2019-01-12T00:54:57.564Z,0.80
2019-01-12T01:00:02.339Z,0.20
2019-01-12T01:05:07.755Z,0.60
2019-01-12T01:10:14.703Z,1.07
2019-01-12T01:15:18.237Z,7.50
2019-01-12T01:20:20.931Z,0.40
2019-01-12T01:25:25.763Z,0.20
2019-01-12T01:30:28.448Z,0.53
2019-01-12T01:35:35.133Z,0.60
2019-01-12T01:40:37.881Z,0.40
2019-01-12T01:45:40.699Z,0.90
2019-01-12T01:50:45.707Z,0.50
2019-01-12T01:55:48.355Z,0.40
2019-01-12T02:00:51.014Z,0.20
2019-01-12T02:05:59.899Z,0.20
2019-01-12T02:11:04.629Z,0.60
2019-01-12T02:16:13.406Z,0.30
2019-01-12T02:21:18.214Z,0.40
2019-01-12T02:26:24.851Z,0.70
2019-01-12T02:31:27.508Z,0.30
2019-01-12T02:36:32.235Z,1.00
2019-01-12T02:41:37.200Z,0.57
2019-01-12T02:46:41.954Z,0.23
2019-01-12T02:51:48.747Z,0.30
2019-01-12T02:56:54.061Z,0.43
2019-01-12T03:01:58.855Z,0.30
2019-01-12T03:07:07.819Z,0.40
2019-01-12T03:17:19.455Z,0.80
2019-01-12T03:22:24.340Z,0.60
2019-01-12T03:27:31.136Z,0.60
2019-01-12T03:32:35.782Z,0.50
2019-01-12T03:37:38.415Z,0.63
2019-01-12T03:42:41.115Z,0.60
2019-01-12T03:47:45.940Z,0.60
2019-01-12T03:52:48.742Z,0.20
2019-01-12T03:57:51.684Z,0.93
2019-01-12T04:02:56.551Z,1.00
2019-01-12T04:07:59.242Z,0.30
2019-01-12T04:13:03.899Z,0.60
2019-01-12T04:18:06.770Z,0.77
2019-01-12T04:23:11.713Z,0.33
2019-01-12T04:28:18.590Z,0.57
2019-01-12T04:33:21.320Z,0.30
2019-01-12T04:38:24.067Z,0.30
2019-01-12T04:43:28.796Z,0.57
2019-01-12T04:48:33.507Z,0.43
2019-01-12T04:53:40.140Z,0.87
2019-01-12T04:58:42.853Z,0.20
2019-01-12T05:03:45.588Z,0.50
2019-01-12T05:08:50.431Z,0.33
2019-01-12T05:13:55.289Z,0.20
2019-01-12T05:19:00.124Z,0.63
2019-01-12T05:24:04.824Z,0.50
2019-01-12T05:29:09.614Z,0.20
2019-01-12T05:34:12.363Z,0.57
2019-01-12T05:39:17.113Z,0.73
2019-01-12T05:44:19.773Z,0.63
2019-01-12T05:49:24.441Z,1.07
2019-01-12T05:54:29.321Z,1.30
2019-01-12T05:59:34.024Z,0.50
2019-01-12T06:04:36.650Z,0.20
2019-01-12T06:09:43.573Z,0.10
2019-01-12T06:14:48.366Z,0.40
2019-01-12T06:19:53.119Z,0.60
2019-01-12T06:24:58.453Z,1.07
2019-01-12T06:30:03.184Z,0.93
2019-01-12T06:35:06.248Z,1.00
2019-01-12T06:40:11.593Z,1.07
2019-01-12T06:45:16.904Z,1.50
2019-01-12T06:50:25.939Z,1.67
2019-01-12T06:55:30.670Z,1.10
2019-01-12T07:00:35.398Z,1.00
2019-01-12T07:05:38.019Z,1.40
2019-01-12T07:10:42.735Z,1.10
2019-01-12T07:15:45.408Z,0.30
2019-01-12T07:20:50.110Z,0.80
2019-01-12T07:25:58.863Z,0.83
2019-01-12T07:31:03.688Z,0.87
2019-01-12T07:36:08.438Z,0.80
2019-01-12T07:41:15.175Z,0.70
2019-01-12T07:46:17.953Z,0.70
2019-01-12T07:51:20.640Z,0.50
2019-01-12T07:56:24.582Z,0.57
2019-01-12T08:01:27.659Z,0.60
2019-01-12T08:06:30.478Z,0.40
2019-01-12T08:11:33.319Z,1.67
2019-01-12T08:16:37.993Z,0.93
2019-01-12T08:21:40.674Z,0.43
2019-01-12T08:26:43.374Z,1.03
2019-01-12T08:31:46.104Z,0.87
2019-01-12T08:36:48.701Z,0.70
2019-01-12T08:41:51.334Z,1.40
2019-01-12T08:46:56.005Z,0.93
2019-01-12T08:51:58.860Z,1.43
2019-01-12T08:57:01.697Z,1.00
2019-01-12T09:02:06.704Z,0.90
2019-01-12T09:07:11.544Z,0.80
2019-01-12T09:12:19.129Z,0.90
2019-01-12T09:17:21.924Z,0.83
2019-01-12T09:22:24.573Z,0.70
2019-01-12T09:27:29.354Z,0.50
2019-01-12T09:32:31.929Z,0.40
2019-01-12T09:37:36.593Z,0.70
2019-01-12T09:42:39.303Z,0.30
2019-01-12T09:47:44.194Z,0.23
2019-01-12T09:52:47.343Z,1.10
2019-01-12T09:57:50.539Z,1.37
2019-01-12T10:02:53.273Z,1.13
2019-01-12T10:07:56.060Z,0.67
2019-01-12T10:13:00.109Z,0.00
2019-01-12T10:18:03.061Z,0.30
2019-01-12T10:23:05.858Z,0.40
2019-01-12T10:28:08.561Z,0.50
2019-01-12T10:33:11.391Z,1.43
2019-01-12T10:38:14.300Z,0.80
2019-01-12T10:43:17.776Z,0.27
2019-01-12T10:48:20.503Z,0.10
2019-01-12T10:53:23.331Z,0.70
2019-01-12T10:58:26.292Z,0.57
2019-01-12T11:03:29.305Z,0.70
2019-01-12T11:08:32.175Z,0.20
2019-01-12T11:13:37.701Z,0.30
2019-01-12T11:18:40.596Z,0.87
2019-01-12T11:23:43.437Z,0.90
2019-01-12T11:28:46.332Z,1.00
2019-01-12T11:33:49.082Z,1.40
2019-01-12T11:38:51.811Z,1.23
2019-01-12T11:43:54.452Z,1.20
2019-01-12T11:48:57.322Z,1.47
2019-01-12T11:54:00.140Z,0.93
2019-01-12T11:59:02.939Z,0.80
2019-01-12T12:04:05.782Z,0.50
2019-01-12T12:09:08.916Z,0.80
2019-01-12T12:14:11.745Z,0.00
2019-01-12T12:19:14.462Z,0.60
2019-01-12T12:24:17.334Z,1.13
2019-01-12T12:29:20.174Z,1.30
2019-01-12T12:34:23.053Z,1.13
2019-01-12T12:39:25.705Z,1.17
2019-01-12T12:44:28.435Z,1.77
2019-01-12T12:49:31.209Z,1.83
2019-01-12T12:54:34.262Z,1.80
2019-01-12T12:59:37.091Z,2.10
2019-01-12T13:04:39.885Z,1.90
2019-01-12T13:09:42.691Z,2.23
2019-01-12T13:14:45.340Z,1.87
2019-01-12T13:19:48.052Z,2.07
2019-01-12T13:24:50.907Z,1.97
2019-01-12T13:29:53.546Z,1.17
2019-01-12T13:34:56.537Z,1.63
2019-01-12T13:39:59.302Z,1.57
2019-01-12T13:45:02.170Z,1.40
2019-01-12T13:50:07.183Z,0.83
2019-01-12T13:55:12.513Z,0.90
2019-01-12T14:00:19.513Z,1.43
2019-01-12T14:05:22.662Z,2.00
2019-01-12T14:10:26.214Z,1.30
2019-01-12T14:15:29.381Z,1.40
2019-01-12T14:20:35.391Z,1.37
2019-01-12T14:25:38.139Z,2.03
2019-01-12T14:30:41.139Z,1.97
2019-01-12T14:35:44.039Z,2.93
2019-01-12T14:40:46.931Z,1.73
2019-01-12T14:45:49.888Z,1.83
2019-01-12T14:50:53.762Z,1.33
2019-01-12T14:55:56.800Z,1.63
2019-01-12T15:00:59.532Z,1.50
2019-01-12T15:06:02.462Z,1.97
2019-01-12T15:11:05.400Z,1.50
2019-01-12T15:16:08.280Z,2.07
2019-01-12T15:21:11.081Z,2.63
2019-01-12T15:26:14.085Z,2.03
2019-01-12T15:31:16.958Z,1.90
2019-01-12T15:36:20.202Z,1.73
2019-01-12T15:41:23.042Z,1.50
2019-01-12T15:46:25.881Z,1.53
2019-01-12T15:51:28.740Z,2.20
2019-01-12T15:56:31.463Z,1.83
2019-01-12T16:01:34.340Z,2.33
2019-01-12T16:06:37.122Z,2.27
2019-01-12T16:11:39.961Z,2.70
2019-01-12T16:16:42.752Z,2.10
2019-01-12T16:21:45.684Z,2.90
2019-01-12T16:26:48.541Z,3.77
2019-01-12T16:31:51.543Z,2.90
2019-01-12T16:36:54.323Z,3.47
2019-01-12T16:41:57.027Z,2.53
2019-01-12T16:46:59.761Z,2.83
2019-01-12T16:52:02.834Z,3.03
2019-01-12T16:57:05.570Z,2.60
2019-01-12T17:02:08.324Z,2.43
2019-01-12T17:07:11.195Z,3.07
2019-01-12T17:12:14.049Z,3.10
2019-01-12T17:17:16.970Z,3.30
2019-01-12T17:22:19.928Z,3.90
2019-01-12T17:27:22.751Z,2.43
2019-01-12T17:32:25.751Z,3.43
2019-01-12T17:37:28.718Z,2.27
2019-01-12T17:42:31.788Z,2.83
2019-01-12T17:47:34.608Z,2.70
2019-01-12T17:52:38.763Z,2.93
2019-01-12T17:57:41.907Z,3.50
2019-01-12T18:02:44.849Z,3.13
2019-01-12T18:07:47.810Z,3.30
2019-01-12T18:12:50.610Z,3.03
2019-01-12T18:17:53.696Z,3.03
2019-01-12T18:22:56.649Z,3.00
2019-01-12T18:27:59.789Z,2.37
2019-01-12T18:33:02.812Z,2.87
2019-01-12T18:38:05.952Z,2.60
2019-01-12T18:43:08.929Z,2.13
2019-01-12T18:48:12.010Z,4.27
2019-01-12T18:53:14.987Z,3.90
2019-01-12T18:58:17.993Z,2.80
2019-01-12T19:03:20.854Z,3.10
2019-01-12T19:08:23.911Z,2.97
2019-01-12T19:13:26.710Z,2.20
2019-01-12T19:18:29.649Z,2.33
2019-01-12T19:23:32.592Z,2.70
2019-01-12T19:28:35.559Z,1.77
2019-01-12T19:33:38.457Z,2.53
2019-01-12T19:38:41.416Z,2.50
2019-01-12T19:43:45.111Z,2.63
2019-01-12T19:48:47.908Z,2.73
2019-01-12T19:53:50.986Z,2.70
2019-01-12T19:58:53.736Z,1.90
2019-01-12T20:03:56.596Z,2.10
2019-01-12T20:08:59.346Z,2.53
2019-01-12T20:14:02.234Z,2.97
2019-01-12T20:19:05.383Z,3.20
2019-01-12T20:24:08.223Z,2.10
2019-01-12T20:29:11.211Z,2.77
2019-01-12T20:34:22.427Z,2.60
2019-01-12T20:39:35.631Z,2.87
2019-01-12T20:44:56.354Z,3.00
2019-01-12T20:50:10.581Z,3.57
2019-01-12T20:55:37.063Z,3.10
2019-01-12T21:00:54.546Z,2.57
2019-01-12T21:06:08.273Z,2.80
2019-01-12T21:11:30.848Z,2.70
2019-01-12T21:16:38.674Z,3.20
2019-01-12T21:21:41.594Z,3.03
2019-01-12T21:26:44.385Z,2.73
2019-01-12T21:31:47.088Z,3.20
2019-01-12T21:36:49.928Z,3.50
2019-01-12T21:41:52.876Z,4.23
2019-01-12T21:46:55.880Z,3.00
2019-01-12T21:51:58.926Z,2.60
2019-01-12T21:57:01.923Z,4.13
2019-01-12T22:02:05.089Z,2.43
2019-01-12T22:07:08.008Z,3.97
2019-01-12T22:12:10.848Z,3.50
2019-01-12T22:17:13.680Z,2.57
2019-01-12T22:22:16.538Z,2.77
2019-01-12T22:27:19.474Z,4.87
2019-01-12T22:32:22.319Z,3.23
2019-01-12T22:37:25.163Z,2.67
2019-01-12T22:42:27.902Z,2.83
2019-01-12T22:47:30.657Z,2.90
2019-01-12T22:52:33.391Z,2.57
2019-01-12T22:57:36.258Z,5.83
2019-01-12T23:02:39.051Z,7.13
2019-01-12T23:07:42.079Z,9.83
2019-01-12T23:12:45.098Z,8.33
2019-01-12T23:17:48.053Z,5.53
2019-01-12T23:22:50.792Z,14.20
2019-01-12T23:27:53.568Z,21.77
2019-01-12T23:32:56.445Z,14.23
2019-01-12T23:37:59.160Z,5.20
2019-01-12T23:43:01.993Z,4.77
2019-01-12T23:48:05.117Z,14.00
2019-01-12T23:53:08.015Z,17.00
2019-01-12T23:58:11.895Z,5.70
